Historyczne dane pomiarowe

Dodano dane terminowe – wersja testowa.

Dane z okresu 1951-2019

Wersja bazy: 1.34 [2019-03-16, lista zmian], aktualizacja planowana na 2019-04-15

Dane meteo z obszaru Polski uzyskane na podstawie danych udostępnionych przez Instytut Meteorologii i Gospodarki Wodnej – Państwowy Instytut Badawczy.

 

Wybierz Datę:    

       

TemperaturaWilgotnośćWiatrCiśnienieOpadyŚniegCzas trwania zjawisk
 Stacja t tx tn tng RH VA  wxwx mslp ppp RRR   cm mm wxwxwxwxwxwxwx
1991-02-14 -6.2 -2.6 -9.1-12.6 74.0- 3.7 2.7---- 0.0-- 11---------
1991-02-15 -6.8 0.2-12.7-14.6 66.8- 1.7 1.3---- 0.0-- 11---------
1991-02-16 -4.7 0.2-11.7-13.6 80.5- 8.0 2.0---- 0.0-- 10---------
1991-02-17 -3.0 2.5 -5.8 -7.6 84.0- 3.7 1.0---- 0.3-- 10---------
1991-02-18 -2.2 1.7 -8.1-11.5 80.3- 4.7 2.7---- 0.0-- 9---------
1991-02-19 -7.6 2.3-14.4-17.2 76.8- 2.3 0.7---- 0.0-- 8---------
1991-02-20 0.5 9.0 -7.3-11.0 79.8- 4.7 0.0---- 0.0-- 8---------
1991-02-21 0.2 6.7 -6.1 -8.8 82.5- 4.3 1.3---- 0.0-- 5---------
1991-02-22 2.0 7.3 -2.8 -5.2 80.8- 4.0 0.3---- 0.0-- 3---------
1991-02-23 3.0 10.0 -3.2 -6.3 86.3- 5.7 1.0---- 0.6-- 2---------
1991-02-24 5.2 10.2 2.6 -2.5 85.3- 6.0 0.7---- 0.0------------
1991-02-25 4.2 16.0 -1.6 -4.6 83.3- 3.3 2.0---- 0.1------------
1991-02-26 3.8 9.5 0.5 -1.4 84.0- 4.0 2.0---- 0.0------------
1991-02-27 -0.3 2.3 -1.3 -3.0 83.3- 7.0 1.3---- 0.1------------
1991-02-28 -1.0 0.7 -2.1 -4.1 85.8- 6.0 1.3---- 0.0------------
1991-03-01 -0.1 4.6 -3.7 -4.9 82.8- 4.0 2.0---- 0.0------------
1991-03-02 0.7 2.5 -0.1 -1.4 86.5- 8.0 3.0---- 0.0------------
1991-03-03 2.8 8.0 -2.1 -4.7 84.8- 3.0 0.7---- 0.0------------
1991-03-04 3.3 9.7 -1.6 -4.6 85.5- 1.7 1.0---- 0.0------------
1991-03-05 2.1 8.3 -1.7 -4.9 85.3- 5.0 2.0---- 0.0------------
1991-03-06 2.4 4.5 0.1 -1.3 91.5- 8.0 2.7---- 0.0------------
1991-03-07 3.3 7.2 0.6 0.6 89.3- 8.0 2.7---- 0.0------------
1991-03-08 8.0 16.1 2.7 1.0 79.5- 4.0 4.0---- 0.0------------
1991-03-09 11.7 16.5 8.3 6.7 59.8- 4.3 4.0---- 0.0------------
1991-03-10 7.3 13.6 1.7 -1.8 79.8- 4.0 1.0---- 0.0------------
1991-03-11 8.4 10.7 6.8 5.7 92.8- 8.0 1.0---- 0.0------------
1991-03-12 7.8 14.0 4.1 1.0 91.3- 7.3 0.7---- 0.0------------
1991-03-13 7.4 15.0 2.5 -1.6 90.8- 3.0 1.3---- 0.0------------
1991-03-14 7.5 16.8 0.9 -2.9 86.3- 2.0 1.0---- 0.0------------
1991-03-15 8.6 18.0 1.4 -2.6 85.5- 2.7 1.0---- 0.0------------
159.2 ms

 

Źródłem pochodzenia danych jest Instytut Meteorologii i Gospodarki Wodnej – Państwowy Instytut Badawczy. Dane Instytutu Meteorologii i Gospodarki Wodnej – Państwowego Instytutu Badawczego zostały przetworzone.

Dane źródłowe można odnaleźć na stronie https://dane.imgw.pl